createdAt,value
2024-02-20T00:00:39.970Z,65.98
2024-02-20T00:03:28.112Z,65.91
2024-02-20T00:05:56.397Z,66.17
2024-02-20T00:08:24.611Z,66.37
2024-02-20T00:10:52.856Z,66.20
2024-02-20T00:13:22.456Z,66.39
2024-02-20T00:15:51.040Z,66.39
2024-02-20T00:18:19.621Z,66.46
2024-02-20T00:20:48.105Z,66.53
2024-02-20T00:23:16.254Z,66.51
2024-02-20T00:25:47.224Z,66.71
2024-02-20T00:28:16.401Z,66.50
2024-02-20T00:30:45.688Z,66.73
2024-02-20T00:33:14.273Z,66.67
2024-02-20T00:35:42.499Z,66.68
2024-02-20T00:38:10.733Z,67.02
2024-02-20T00:40:40.867Z,66.92
2024-02-20T00:43:09.707Z,67.01
2024-02-20T00:45:38.405Z,66.96
2024-02-20T00:48:07.502Z,67.01
2024-02-20T00:50:35.688Z,67.39
2024-02-20T00:53:04.401Z,67.16
2024-02-20T00:55:32.608Z,67.18
2024-02-20T00:58:01.299Z,67.28
2024-02-20T01:00:29.768Z,67.20
2024-02-20T01:03:00.065Z,67.45
2024-02-20T01:05:28.560Z,67.30
2024-02-20T01:07:58.403Z,67.12
2024-02-20T01:10:26.967Z,67.35
2024-02-20T01:12:55.659Z,67.53
2024-02-20T01:15:24.219Z,67.49
2024-02-20T01:17:54.341Z,67.51
2024-02-20T01:20:22.710Z,67.71
2024-02-20T01:22:51.757Z,67.65
2024-02-20T01:25:19.937Z,67.30
2024-02-20T01:27:48.172Z,67.69
2024-02-20T01:30:17.726Z,67.59
2024-02-20T01:32:45.967Z,67.96
2024-02-20T01:35:15.042Z,67.92
2024-02-20T01:37:43.456Z,68.01
2024-02-20T01:40:12.506Z,68.04
2024-02-20T01:42:40.675Z,68.20
2024-02-20T01:45:10.011Z,68.32
2024-02-20T01:47:38.445Z,68.02
2024-02-20T01:50:08.333Z,68.29
2024-02-20T01:52:36.802Z,68.56
2024-02-20T01:55:05.859Z,68.37
2024-02-20T01:57:35.236Z,68.22
2024-02-20T02:00:06.133Z,68.36
2024-02-20T02:02:40.138Z,68.16
2024-02-20T02:05:08.946Z,68.32
2024-02-20T02:07:37.391Z,68.00
2024-02-20T02:10:06.500Z,68.18
2024-02-20T02:12:35.182Z,68.22
2024-02-20T02:15:03.774Z,68.21
2024-02-20T02:17:31.962Z,68.13
2024-02-20T02:20:00.343Z,68.24
2024-02-20T02:22:28.638Z,68.37
2024-02-20T02:24:56.983Z,68.27
2024-02-20T02:27:25.175Z,68.43
2024-02-20T02:29:53.635Z,68.37
2024-02-20T02:32:21.896Z,68.70
2024-02-20T02:34:50.585Z,68.77
2024-02-20T02:37:18.886Z,68.65
2024-02-20T02:39:47.438Z,68.77
2024-02-20T02:42:15.849Z,68.69
2024-02-20T02:44:45.267Z,68.67
2024-02-20T02:47:13.987Z,68.74
2024-02-20T02:49:42.233Z,68.89
2024-02-20T02:52:10.415Z,68.85
2024-02-20T02:54:38.584Z,68.97
2024-02-20T02:57:07.644Z,68.78
2024-02-20T02:59:36.006Z,68.64
2024-02-20T03:02:05.055Z,68.87
2024-02-20T03:04:33.823Z,68.87
2024-02-20T03:07:02.300Z,69.19
2024-02-20T03:09:30.533Z,69.16
2024-02-20T03:11:59.348Z,69.00
2024-02-20T03:14:27.636Z,69.11
2024-02-20T03:16:55.839Z,69.15
2024-02-20T03:19:24.283Z,69.35
2024-02-20T03:21:53.328Z,69.49
2024-02-20T03:24:21.865Z,69.63
2024-02-20T03:26:50.072Z,69.74
2024-02-20T03:29:18.313Z,69.85
2024-02-20T03:31:46.454Z,69.86
2024-02-20T03:34:14.845Z,69.52
2024-02-20T03:36:43.114Z,69.55
2024-02-20T03:39:11.918Z,69.82
2024-02-20T03:41:40.153Z,69.77
2024-02-20T03:44:08.431Z,69.72
2024-02-20T03:46:37.397Z,69.70
2024-02-20T03:49:05.850Z,70.00
2024-02-20T03:51:34.407Z,69.92
2024-02-20T03:54:02.602Z,70.07
2024-02-20T03:56:30.802Z,69.91
2024-02-20T03:58:58.958Z,70.01
2024-02-20T04:01:27.304Z,69.88
2024-02-20T04:03:55.638Z,69.94
2024-02-20T04:06:23.970Z,69.94
2024-02-20T04:08:52.743Z,70.21
2024-02-20T04:11:21.269Z,70.43
2024-02-20T04:13:49.404Z,70.42
2024-02-20T04:16:17.724Z,70.50
2024-02-20T04:18:46.162Z,70.67
2024-02-20T04:21:14.428Z,70.32
2024-02-20T04:23:42.619Z,70.59
2024-02-20T04:26:10.707Z,70.79
2024-02-20T04:28:38.956Z,70.82
2024-02-20T04:31:07.134Z,71.04
2024-02-20T04:33:35.418Z,71.24
2024-02-20T04:36:03.901Z,71.06
2024-02-20T04:38:32.074Z,71.06
2024-02-20T04:41:00.968Z,71.20
2024-02-20T04:43:29.218Z,71.37
2024-02-20T04:45:57.412Z,71.39
2024-02-20T04:48:25.649Z,71.21
2024-02-20T04:50:54.704Z,71.24
2024-02-20T04:53:22.994Z,71.64
2024-02-20T04:55:51.192Z,71.72
2024-02-20T04:58:19.464Z,71.87
2024-02-20T05:00:47.814Z,71.67
2024-02-20T05:03:16.228Z,71.89
2024-02-20T05:05:44.461Z,71.86
2024-02-20T05:08:12.620Z,71.81
2024-02-20T05:10:40.904Z,71.91
2024-02-20T05:13:09.117Z,71.68
2024-02-20T05:15:37.430Z,71.92
2024-02-20T05:18:06.654Z,71.91
2024-02-20T05:20:34.900Z,71.65
2024-02-20T05:23:03.391Z,71.69
2024-02-20T05:25:31.698Z,71.68
2024-02-20T05:27:59.972Z,71.67
2024-02-20T05:30:28.242Z,71.51
2024-02-20T05:32:56.431Z,71.51
2024-02-20T05:35:24.675Z,71.33
2024-02-20T05:37:52.911Z,71.36
2024-02-20T05:40:21.145Z,71.16
2024-02-20T05:42:49.352Z,71.21
2024-02-20T05:45:20.769Z,71.15
2024-02-20T05:47:49.121Z,71.22
2024-02-20T05:50:17.961Z,71.23
2024-02-20T05:52:47.372Z,71.05
2024-02-20T05:55:17.441Z,71.08
2024-02-20T05:57:45.640Z,70.87
2024-02-20T06:00:14.902Z,70.89
2024-02-20T06:02:43.245Z,70.57
2024-02-20T06:05:11.743Z,70.42
2024-02-20T06:07:40.144Z,70.33
2024-02-20T06:10:09.178Z,70.29
2024-02-20T06:12:37.386Z,70.51
2024-02-20T06:15:07.322Z,70.36
2024-02-20T06:17:35.939Z,70.23
2024-02-20T06:20:04.927Z,70.25
2024-02-20T06:22:33.984Z,70.34
2024-02-20T06:25:03.517Z,70.38
2024-02-20T06:27:31.784Z,70.49
2024-02-20T06:29:59.998Z,70.71
2024-02-20T06:32:29.549Z,70.63
2024-02-20T06:34:59.115Z,70.61
2024-02-20T06:37:27.396Z,70.74
2024-02-20T06:39:55.560Z,70.58
2024-02-20T06:42:23.868Z,70.57
2024-02-20T06:44:52.035Z,70.64
2024-02-20T06:47:20.233Z,70.52
2024-02-20T06:49:48.450Z,70.71
2024-02-20T06:52:16.690Z,70.97
2024-02-20T06:54:44.981Z,71.09
2024-02-20T06:57:13.200Z,71.02
2024-02-20T06:59:41.500Z,70.94
2024-02-20T07:02:09.807Z,70.76
2024-02-20T07:04:41.839Z,70.76
2024-02-20T07:07:10.284Z,70.86
2024-02-20T07:09:38.533Z,70.61
2024-02-20T07:12:07.760Z,70.64
2024-02-20T07:14:37.532Z,70.44
2024-02-20T07:17:05.929Z,70.48
2024-02-20T07:19:34.228Z,70.55
2024-02-20T07:22:02.480Z,70.41
2024-02-20T07:24:30.650Z,70.48
2024-02-20T07:26:58.843Z,70.35
2024-02-20T07:29:26.981Z,70.38
2024-02-20T07:31:56.550Z,70.46
2024-02-20T07:34:25.466Z,70.23
2024-02-20T07:36:55.446Z,70.17
2024-02-20T07:39:23.747Z,70.15
2024-02-20T07:41:52.783Z,70.41
2024-02-20T07:44:20.990Z,70.24
2024-02-20T07:46:49.604Z,70.33
2024-02-20T07:49:18.041Z,70.15
2024-02-20T07:51:46.350Z,70.25
2024-02-20T07:54:14.846Z,70.24
2024-02-20T07:56:43.763Z,70.33
2024-02-20T07:59:12.208Z,70.32
2024-02-20T08:01:40.721Z,70.22
2024-02-20T08:04:09.166Z,70.11
2024-02-20T08:06:37.528Z,70.23
2024-02-20T08:09:06.623Z,70.30
2024-02-20T08:11:35.517Z,70.39
2024-02-20T08:14:03.795Z,70.55
2024-02-20T08:16:32.915Z,70.54
2024-02-20T08:19:02.347Z,70.78
2024-02-20T08:21:30.633Z,70.96
2024-02-20T08:24:00.001Z,70.93
2024-02-20T08:26:28.637Z,71.16
2024-02-20T08:28:56.930Z,71.25
2024-02-20T08:31:25.212Z,71.19
2024-02-20T08:33:53.425Z,71.15
2024-02-20T08:36:22.143Z,71.12
2024-02-20T08:38:50.546Z,71.03
2024-02-20T08:41:18.704Z,71.04
2024-02-20T08:43:49.783Z,70.97
2024-02-20T08:46:19.077Z,70.93
2024-02-20T08:48:48.122Z,70.88
2024-02-20T08:51:17.074Z,70.71
2024-02-20T08:53:46.696Z,70.73
2024-02-20T08:56:15.098Z,70.69
2024-02-20T08:58:43.403Z,70.85
2024-02-20T09:01:11.649Z,70.68
2024-02-20T09:03:39.874Z,70.86
2024-02-20T09:06:08.262Z,70.61
2024-02-20T09:08:36.489Z,70.50
2024-02-20T09:11:05.715Z,70.46
2024-02-20T09:13:36.003Z,70.37
2024-02-20T09:16:04.890Z,70.24
2024-02-20T09:18:36.684Z,69.88
2024-02-20T09:21:08.147Z,70.01
2024-02-20T09:23:38.683Z,70.05
2024-02-20T09:26:07.723Z,70.00
2024-02-20T09:28:36.161Z,69.90
2024-02-20T09:31:04.654Z,69.83
2024-02-20T09:33:34.056Z,69.70
2024-02-20T09:36:02.521Z,69.75
2024-02-20T09:38:30.673Z,69.66
2024-02-20T09:41:01.182Z,69.61
2024-02-20T09:43:29.696Z,69.60
2024-02-20T09:46:05.427Z,69.56
2024-02-20T09:48:34.693Z,69.54
2024-02-20T09:51:03.451Z,69.23
2024-02-20T09:53:33.546Z,69.33
2024-02-20T09:56:01.881Z,69.30
2024-02-20T09:58:33.561Z,69.23
2024-02-20T10:01:06.285Z,69.27
2024-02-20T10:03:36.834Z,69.38
2024-02-20T10:06:09.406Z,69.42
2024-02-20T10:08:38.214Z,69.15
2024-02-20T10:11:07.511Z,69.08
2024-02-20T10:13:46.534Z,68.83
2024-02-20T10:16:17.334Z,68.73
2024-02-20T10:18:57.566Z,68.74
2024-02-20T10:21:30.256Z,68.54
2024-02-20T10:24:08.110Z,68.44
2024-02-20T10:26:38.422Z,68.32
2024-02-20T10:29:07.245Z,67.91
2024-02-20T10:31:35.635Z,67.84
2024-02-20T10:34:10.186Z,67.92
2024-02-20T10:36:42.887Z,67.85
2024-02-20T10:39:12.152Z,67.63
2024-02-20T10:41:40.910Z,67.76
2024-02-20T10:44:09.452Z,67.71
2024-02-20T10:46:41.387Z,67.67
2024-02-20T10:49:25.037Z,67.83
2024-02-20T10:51:56.034Z,68.21
2024-02-20T10:54:31.619Z,67.93
2024-02-20T10:57:06.981Z,67.80
2024-02-20T10:59:36.305Z,67.59
2024-02-20T11:02:04.901Z,67.69
2024-02-20T11:04:33.735Z,67.37
2024-02-20T11:07:02.840Z,67.10
2024-02-20T11:09:31.091Z,66.90
2024-02-20T11:12:10.148Z,66.68
2024-02-20T11:14:38.697Z,66.81
2024-02-20T11:17:24.674Z,66.66
2024-02-20T11:20:26.917Z,66.86
2024-02-20T11:22:55.219Z,66.68
2024-02-20T11:25:31.598Z,66.69
2024-02-20T11:27:59.963Z,66.52
2024-02-20T11:30:28.359Z,66.58
2024-02-20T11:32:57.717Z,66.51
2024-02-20T11:35:32.116Z,66.45
2024-02-20T11:38:02.328Z,66.47
2024-02-20T11:40:33.303Z,66.48
2024-02-20T11:43:07.474Z,66.35
2024-02-20T11:45:36.357Z,66.52
2024-02-20T11:48:13.501Z,66.56
2024-02-20T11:50:45.005Z,66.65
2024-02-20T11:53:16.614Z,66.70
2024-02-20T11:55:48.009Z,66.37
2024-02-20T11:58:26.534Z,66.61
2024-02-20T12:01:07.228Z,66.59
2024-02-20T12:03:38.195Z,66.61
2024-02-20T12:06:10.102Z,66.62
2024-02-20T12:08:43.228Z,66.74
2024-02-20T12:11:18.973Z,66.66
2024-02-20T12:13:51.916Z,66.70
2024-02-20T12:16:27.694Z,66.81
2024-02-20T12:19:03.614Z,66.96
2024-02-20T12:21:40.088Z,66.83
2024-02-20T12:24:12.154Z,66.82
2024-02-20T12:26:40.723Z,67.08
2024-02-20T12:29:08.879Z,67.05
2024-02-20T12:31:37.213Z,67.22
2024-02-20T12:34:06.902Z,67.30
2024-02-20T12:36:37.273Z,67.35
2024-02-20T12:39:05.767Z,67.26
2024-02-20T12:41:35.198Z,67.33
2024-02-20T12:44:04.737Z,67.15
2024-02-20T12:46:33.015Z,67.15
2024-02-20T12:49:01.488Z,67.01
2024-02-20T12:51:30.080Z,67.02
2024-02-20T12:53:58.274Z,67.08
2024-02-20T12:56:27.036Z,66.90
2024-02-20T12:58:55.303Z,66.95
2024-02-20T13:01:24.216Z,66.84
2024-02-20T13:03:52.575Z,66.65
2024-02-20T13:06:20.925Z,66.77
2024-02-20T13:08:49.177Z,66.67
2024-02-20T13:11:18.948Z,66.53
2024-02-20T13:13:48.511Z,66.38
2024-02-20T13:16:16.973Z,66.34
2024-02-20T13:18:45.810Z,66.29
2024-02-20T13:21:15.572Z,66.28
2024-02-20T13:23:44.284Z,65.86
2024-02-20T13:26:13.601Z,65.68
2024-02-20T13:28:42.401Z,65.79
2024-02-20T13:31:11.310Z,65.75
2024-02-20T13:33:39.704Z,65.94
2024-02-20T13:36:09.342Z,65.97
2024-02-20T13:38:41.381Z,65.84
2024-02-20T13:41:10.986Z,65.70
2024-02-20T13:43:42.407Z,65.62
2024-02-20T13:46:11.048Z,65.61
2024-02-20T13:48:39.398Z,65.52
2024-02-20T13:51:07.815Z,65.60
2024-02-20T13:53:36.101Z,65.73
2024-02-20T13:56:05.247Z,65.50
2024-02-20T13:58:34.082Z,65.48
2024-02-20T14:01:02.608Z,65.39
2024-02-20T14:03:31.839Z,65.36
2024-02-20T14:06:00.703Z,64.92
2024-02-20T14:08:29.094Z,64.40
2024-02-20T14:10:57.477Z,64.60
2024-02-20T14:13:26.496Z,64.30
2024-02-20T14:15:55.638Z,64.01
2024-02-20T14:18:24.329Z,64.08
2024-02-20T14:20:58.376Z,63.82
2024-02-20T14:23:26.759Z,64.09
2024-02-20T14:25:55.033Z,63.96
2024-02-20T14:28:23.452Z,63.86
2024-02-20T14:30:57.992Z,63.92
2024-02-20T14:33:31.184Z,63.91
2024-02-20T14:36:01.846Z,64.20
2024-02-20T14:38:30.222Z,64.42
2024-02-20T14:40:58.829Z,64.45
2024-02-20T14:43:27.394Z,64.75
2024-02-20T14:45:56.225Z,64.81
2024-02-20T14:48:24.916Z,65.08
2024-02-20T14:50:53.144Z,65.08
2024-02-20T14:53:21.291Z,65.36
2024-02-20T14:55:50.003Z,65.35
2024-02-20T14:58:18.758Z,65.40
2024-02-20T15:00:47.237Z,65.73
2024-02-20T15:03:17.459Z,65.40
2024-02-20T15:05:47.288Z,65.64
2024-02-20T15:08:18.376Z,65.78
2024-02-20T15:10:47.179Z,65.74
2024-02-20T15:13:16.102Z,65.86
2024-02-20T15:15:45.051Z,66.02
2024-02-20T15:18:13.253Z,65.96
2024-02-20T15:20:44.160Z,66.12
2024-02-20T15:23:13.583Z,66.38
2024-02-20T15:25:42.016Z,66.29
2024-02-20T15:28:11.687Z,66.30
2024-02-20T15:30:40.114Z,66.24
2024-02-20T15:33:08.446Z,66.39
2024-02-20T15:35:36.864Z,66.51
2024-02-20T15:38:05.574Z,66.56
2024-02-20T15:40:40.909Z,66.60
2024-02-20T15:43:12.041Z,66.40
2024-02-20T15:45:46.217Z,66.36
2024-02-20T15:48:16.592Z,66.78
2024-02-20T15:50:47.096Z,66.85
2024-02-20T15:53:16.974Z,66.84
2024-02-20T15:55:45.908Z,67.09
2024-02-20T15:58:16.315Z,67.18
2024-02-20T16:00:45.326Z,67.31
2024-02-20T16:03:13.982Z,67.46
2024-02-20T16:05:42.310Z,67.48
2024-02-20T16:08:15.955Z,67.50
2024-02-20T16:10:47.345Z,67.66
2024-02-20T16:13:16.394Z,67.56
2024-02-20T16:15:46.185Z,67.77
2024-02-20T16:18:14.509Z,67.72
2024-02-20T16:20:44.221Z,67.63
2024-02-20T16:23:13.365Z,67.52
2024-02-20T16:25:43.276Z,67.51
2024-02-20T16:28:11.986Z,67.44
2024-02-20T16:30:40.217Z,67.39
2024-02-20T16:33:08.757Z,67.32
2024-02-20T16:35:37.043Z,67.30
2024-02-20T16:38:05.522Z,67.24
2024-02-20T16:40:33.927Z,67.19
2024-02-20T16:43:02.339Z,67.11
2024-02-20T16:45:32.644Z,66.97
2024-02-20T16:48:01.230Z,67.14
2024-02-20T16:50:34.027Z,67.20
2024-02-20T16:53:04.935Z,67.26
2024-02-20T16:55:33.455Z,67.22
2024-02-20T16:58:01.988Z,67.18
2024-02-20T17:00:31.187Z,67.07
2024-02-20T17:02:59.907Z,67.17
2024-02-20T17:05:29.372Z,67.19
2024-02-20T17:07:58.389Z,67.39
2024-02-20T17:10:28.102Z,67.42
2024-02-20T17:15:24.550Z,67.31
2024-02-20T17:17:52.842Z,67.49
2024-02-20T17:20:21.230Z,67.48
2024-02-20T17:22:51.402Z,67.50
2024-02-20T17:25:22.032Z,67.79
2024-02-20T17:27:50.476Z,67.61
2024-02-20T17:30:19.545Z,67.75
2024-02-20T17:32:47.925Z,67.58
2024-02-20T17:35:16.328Z,67.60
2024-02-20T17:37:44.633Z,67.69
2024-02-20T17:40:14.314Z,67.87
2024-02-20T17:42:44.526Z,67.80
2024-02-20T17:45:17.576Z,67.96
2024-02-20T17:47:47.007Z,67.88
2024-02-20T17:50:16.417Z,67.88
2024-02-20T17:52:44.844Z,67.98
2024-02-20T17:55:13.151Z,67.91
2024-02-20T17:57:41.415Z,67.94
2024-02-20T18:00:10.227Z,67.88
2024-02-20T18:02:41.100Z,67.96
2024-02-20T18:05:09.638Z,67.75
2024-02-20T18:07:38.353Z,67.65
2024-02-20T18:10:07.294Z,67.80
2024-02-20T18:12:36.612Z,67.58
2024-02-20T18:15:08.633Z,67.65
2024-02-20T18:17:36.957Z,67.67
2024-02-20T18:20:06.119Z,67.79
2024-02-20T18:22:34.532Z,67.63
2024-02-20T18:25:04.265Z,67.57
2024-02-20T18:27:32.552Z,67.63
2024-02-20T18:30:00.736Z,67.69
2024-02-20T18:32:29.125Z,67.68
2024-02-20T18:34:57.478Z,67.58
2024-02-20T18:37:25.771Z,67.56
2024-02-20T18:39:54.391Z,67.54
2024-02-20T18:42:25.457Z,67.43
2024-02-20T18:44:53.716Z,67.40
2024-02-20T18:47:21.921Z,67.49
2024-02-20T18:49:51.487Z,67.45
2024-02-20T18:52:20.268Z,67.68
2024-02-20T18:54:48.774Z,67.62
2024-02-20T18:57:16.929Z,67.58
2024-02-20T18:59:45.034Z,67.32
2024-02-20T19:02:18.774Z,67.15
2024-02-20T19:04:56.597Z,67.42
2024-02-20T19:07:25.244Z,67.55
2024-02-20T19:09:53.936Z,67.41
2024-02-20T19:12:23.407Z,67.15
2024-02-20T19:14:52.823Z,67.23
2024-02-20T19:17:21.057Z,67.45
2024-02-20T19:19:50.280Z,67.53
2024-02-20T19:22:18.783Z,67.29
2024-02-20T19:24:47.130Z,67.13
2024-02-20T19:27:15.348Z,67.15
2024-02-20T19:29:43.527Z,67.33
2024-02-20T19:32:11.802Z,67.14
2024-02-20T19:34:43.418Z,66.79
2024-02-20T19:37:11.740Z,66.91
2024-02-20T19:39:40.165Z,66.99
2024-02-20T19:42:08.288Z,67.08
2024-02-20T19:44:39.959Z,67.05
2024-02-20T19:47:09.605Z,67.28
2024-02-20T19:49:38.463Z,67.21
2024-02-20T19:52:06.970Z,67.21
2024-02-20T19:54:35.337Z,67.09
2024-02-20T19:57:03.647Z,67.37
2024-02-20T19:59:31.917Z,67.55
2024-02-20T20:02:00.273Z,67.72
2024-02-20T20:04:28.631Z,67.76
2024-02-20T20:06:56.880Z,67.63
2024-02-20T20:09:25.261Z,67.71
2024-02-20T20:11:54.250Z,68.20
2024-02-20T20:14:24.291Z,67.94
2024-02-20T20:16:52.716Z,67.82
2024-02-20T20:19:21.157Z,68.31
2024-02-20T20:21:49.489Z,68.61
2024-02-20T20:24:18.974Z,68.60
2024-02-20T20:26:47.447Z,68.75
2024-02-20T20:29:15.906Z,68.75
2024-02-20T20:31:44.566Z,68.93
2024-02-20T20:34:12.978Z,68.76
2024-02-20T20:36:44.839Z,68.90
2024-02-20T20:39:13.450Z,69.29
2024-02-20T20:41:41.910Z,69.13
2024-02-20T20:44:10.524Z,69.22
2024-02-20T20:46:38.838Z,69.21
2024-02-20T20:49:08.166Z,69.73
2024-02-20T20:51:36.815Z,69.76
2024-02-20T20:54:05.639Z,70.06
2024-02-20T20:56:34.723Z,69.68
2024-02-20T20:59:03.509Z,69.71
2024-02-20T21:01:33.062Z,69.88
2024-02-20T21:04:04.189Z,69.88
2024-02-20T21:06:33.388Z,70.08
2024-02-20T21:09:01.847Z,70.05
2024-02-20T21:11:33.603Z,70.15
2024-02-20T21:14:05.216Z,70.49
2024-02-20T21:16:33.889Z,70.25
2024-02-20T21:19:02.232Z,70.28
2024-02-20T21:21:33.589Z,70.30
2024-02-20T21:24:03.566Z,70.38
2024-02-20T21:26:31.721Z,70.53
2024-02-20T21:28:59.944Z,70.20
2024-02-20T21:31:28.141Z,70.44
2024-02-20T21:33:56.510Z,70.16
2024-02-20T21:36:24.753Z,70.50
2024-02-20T21:38:52.946Z,70.48
2024-02-20T21:41:21.130Z,70.74
2024-02-20T21:43:49.380Z,70.58
2024-02-20T21:46:22.403Z,70.74
2024-02-20T21:48:51.314Z,70.74
2024-02-20T21:51:21.052Z,70.84
2024-02-20T21:53:51.234Z,71.14
2024-02-20T21:56:20.007Z,71.16
2024-02-20T21:58:48.357Z,71.38
2024-02-20T22:01:16.738Z,71.05
2024-02-20T22:03:45.687Z,71.27
2024-02-20T22:06:13.948Z,70.95
2024-02-20T22:08:42.363Z,71.28
2024-02-20T22:11:10.692Z,71.45
2024-02-20T22:13:40.443Z,71.12
2024-02-20T22:16:08.767Z,71.40
2024-02-20T22:18:36.946Z,71.31
2024-02-20T22:21:05.885Z,71.44
2024-02-20T22:23:34.148Z,71.56
2024-02-20T22:26:05.771Z,71.44
2024-02-20T22:28:34.361Z,71.50
2024-02-20T22:31:02.612Z,71.49
2024-02-20T22:33:30.856Z,71.37
2024-02-20T22:35:59.199Z,71.03
2024-02-20T22:38:31.564Z,71.27
2024-02-20T22:41:00.025Z,71.24
2024-02-20T22:43:28.189Z,71.45
2024-02-20T22:45:58.006Z,71.54
2024-02-20T22:48:26.523Z,71.55
2024-02-20T22:50:54.844Z,71.48
2024-02-20T22:53:25.377Z,71.91
2024-02-20T22:55:54.834Z,71.41
2024-02-20T22:58:23.141Z,71.70
2024-02-20T23:00:51.485Z,71.78
2024-02-20T23:03:19.706Z,71.72
2024-02-20T23:05:48.256Z,71.89
2024-02-20T23:08:16.550Z,71.68
2024-02-20T23:10:47.225Z,71.68
2024-02-20T23:13:17.441Z,71.82
2024-02-20T23:15:45.633Z,71.85
2024-02-20T23:18:14.604Z,71.82
2024-02-20T23:20:42.912Z,71.94
2024-02-20T23:23:11.113Z,71.86
2024-02-20T23:25:39.372Z,72.16
2024-02-20T23:28:07.580Z,71.97
2024-02-20T23:30:35.784Z,71.88
2024-02-20T23:33:04.409Z,71.92
2024-02-20T23:35:32.579Z,72.19
2024-02-20T23:38:00.768Z,72.18
2024-02-20T23:40:29.020Z,72.34
2024-02-20T23:42:57.270Z,72.43
2024-02-20T23:45:25.416Z,72.17
2024-02-20T23:47:53.760Z,72.09
2024-02-20T23:50:21.993Z,72.17
2024-02-20T23:52:50.194Z,72.26
2024-02-20T23:55:18.464Z,72.29
2024-02-20T23:57:46.685Z,72.39
